Time;durP1;ratioP1;P1;durP2;ratioP2;P2;SDS_P1;SDS_P2;PMS_P1;PMS_P2;Temp;Humidity;BMP_temperature;BMP_pressure;BME280_temperature;BME280_humidity;BME280_pressure;Samples;Min_cycle;Max_cycle;Signal;HPM_P1;HPM_P2
2023/04/25 00:01:00;;;;;;;7.00;6.80;;;4.10;99.90;;;;;;5118893;27;20461;-68
2023/04/25 00:03:29;;;;;;;7.40;7.20;;;4.10;99.90;;;;;;5127392;27;20679;-67
2023/04/25 00:05:57;;;;;;;11.20;7.00;;;4.20;99.90;;;;;;5116021;27;20465;-67
2023/04/25 00:08:24;;;;;;;6.57;6.37;;;4.10;99.90;;;;;;5128068;27;20565;-67
2023/04/25 00:10:52;;;;;;;6.57;6.37;;;4.10;99.90;;;;;;5118020;27;20484;-68
2023/04/25 00:13:19;;;;;;;7.13;6.93;;;4.00;99.90;;;;;;5128742;27;20513;-67
2023/04/25 00:15:47;;;;;;;7.30;7.10;;;4.00;99.90;;;;;;5126692;27;20463;-68
2023/04/25 00:18:15;;;;;;;7.43;7.23;;;3.90;99.90;;;;;;5118260;27;20461;-68
2023/04/25 00:20:46;;;;;;;7.07;6.87;;;3.90;99.90;;;;;;5120442;27;20509;-67
2023/04/25 00:23:17;;;;;;;12.47;11.40;;;3.90;99.90;;;;;;5125157;27;20496;-68
2023/04/25 00:25:45;;;;;;;7.70;7.40;;;3.90;99.90;;;;;;5123334;27;20846;-68
2023/04/25 00:28:12;;;;;;;7.17;6.97;;;3.90;99.90;;;;;;5119676;28;20466;-68
2023/04/25 00:30:39;;;;;;;6.90;6.70;;;3.90;99.90;;;;;;5120027;27;20867;-67
2023/04/25 00:33:07;;;;;;;7.10;6.90;;;3.90;99.90;;;;;;5115147;27;20453;-67
2023/04/25 00:35:34;;;;;;;7.30;7.10;;;3.80;99.90;;;;;;5121486;27;20466;-67
2023/04/25 00:38:03;;;;;;;9.03;8.73;;;3.70;99.90;;;;;;5122875;27;20460;-68
2023/04/25 00:40:30;;;;;;;8.00;7.70;;;3.60;99.90;;;;;;5122062;28;20472;-68
2023/04/25 00:42:58;;;;;;;7.30;7.10;;;3.60;99.90;;;;;;5114474;28;20460;-67
2023/04/25 00:45:29;;;;;;;8.63;8.33;;;3.50;99.90;;;;;;5112133;28;20464;-67
2023/04/25 00:47:56;;;;;;;7.67;7.40;;;3.60;99.90;;;;;;5115519;27;20492;-67
2023/04/25 00:50:23;;;;;;;7.40;7.20;;;3.70;99.90;;;;;;5123442;27;20547;-67
2023/04/25 00:52:51;;;;;;;8.53;8.13;;;3.90;99.90;;;;;;5125097;27;20866;-67
2023/04/25 00:55:21;;;;;;;6.53;6.33;;;4.00;99.90;;;;;;5122913;27;20455;-68
2023/04/25 00:57:48;;;;;;;6.57;6.30;;;4.20;99.90;;;;;;5122747;27;21139;-67
2023/04/25 01:00:16;;;;;;;13.13;8.20;;;4.40;99.90;;;;;;5129972;27;20460;-67
2023/04/25 01:02:44;;;;;;;6.90;6.70;;;4.40;99.90;;;;;;5129500;27;20453;-67
2023/04/25 01:05:11;;;;;;;6.30;6.10;;;4.50;99.90;;;;;;5130341;27;20508;-67
2023/04/25 01:07:39;;;;;;;5.73;5.53;;;4.70;99.90;;;;;;5121247;27;20476;-67
2023/04/25 01:10:07;;;;;;;7.27;6.97;;;4.80;99.90;;;;;;5132223;27;20467;-68
2023/04/25 01:12:35;;;;;;;9.00;8.50;;;4.90;99.90;;;;;;5118417;27;20533;-67
2023/04/25 01:15:02;;;;;;;10.30;9.70;;;4.90;99.90;;;;;;5120237;27;20444;-67
2023/04/25 01:17:31;;;;;;;6.23;6.03;;;5.00;99.90;;;;;;5120903;27;20483;-67
2023/04/25 01:19:57;;;;;;;6.43;5.90;;;5.00;99.90;;;;;;5112961;27;20528;-67
2023/04/25 01:22:26;;;;;;;7.03;6.70;;;5.00;99.90;;;;;;5117651;27;20469;-67
2023/04/25 01:24:54;;;;;;;6.93;6.63;;;5.00;99.90;;;;;;5118133;27;20460;-68
2023/04/25 01:27:22;;;;;;;6.70;6.50;;;4.90;99.90;;;;;;5130464;27;20873;-67
2023/04/25 01:29:50;;;;;;;6.17;5.97;;;4.90;99.90;;;;;;5129147;27;20514;-68
2023/04/25 01:32:18;;;;;;;7.03;6.53;;;4.80;99.90;;;;;;5125957;27;20486;-67
2023/04/25 01:34:45;;;;;;;5.67;5.40;;;4.80;99.90;;;;;;5128869;27;20513;-67
2023/04/25 01:37:12;;;;;;;6.33;6.13;;;4.80;99.90;;;;;;5117349;27;20509;-67
2023/04/25 01:39:41;;;;;;;5.93;5.73;;;4.70;99.90;;;;;;5119047;27;20929;-67
2023/04/25 01:42:08;;;;;;;6.40;6.20;;;4.70;99.90;;;;;;5119856;27;20466;-67
2023/04/25 01:44:35;;;;;;;5.87;5.67;;;4.70;99.90;;;;;;5121247;27;20456;-67
2023/04/25 01:47:02;;;;;;;6.80;6.50;;;4.70;99.90;;;;;;5117079;27;20482;-68
2023/04/25 01:49:29;;;;;;;5.90;5.70;;;4.70;99.90;;;;;;5123427;27;20463;-68
2023/04/25 01:51:56;;;;;;;8.23;6.90;;;4.70;99.90;;;;;;5121157;27;20995;-67
2023/04/25 01:54:22;;;;;;;5.93;5.73;;;4.70;99.90;;;;;;5117083;27;20795;-69
2023/04/25 01:56:53;;;;;;;7.50;6.97;;;4.80;99.90;;;;;;5122256;27;22835;-67
2023/04/25 01:59:21;;;;;;;6.13;5.93;;;4.70;99.90;;;;;;5126497;27;20467;-67
2023/04/25 02:01:48;;;;;;;6.00;5.80;;;4.70;99.90;;;;;;5131566;27;20455;-67
2023/04/25 02:04:16;;;;;;;5.90;5.70;;;4.70;99.90;;;;;;5130872;27;20462;-67
2023/04/25 02:06:43;;;;;;;6.43;6.20;;;4.70;99.90;;;;;;5118619;27;20504;-67
2023/04/25 02:09:10;;;;;;;6.90;6.70;;;4.80;99.90;;;;;;5118984;27;20465;-68
2023/04/25 02:11:37;;;;;;;6.87;6.67;;;4.80;99.90;;;;;;5128305;27;20496;-67
2023/04/25 02:14:06;;;;;;;6.60;6.40;;;4.90;99.90;;;;;;5126898;27;20460;-67
2023/04/25 02:16:33;;;;;;;7.20;7.00;;;4.80;99.90;;;;;;5127389;27;20476;-67
2023/04/25 02:18:59;;;;;;;6.70;6.50;;;4.70;99.90;;;;;;5111785;27;20469;-66
2023/04/25 02:21:26;;;;;;;6.70;6.50;;;4.80;99.90;;;;;;5121137;27;21302;-67
2023/04/25 02:23:53;;;;;;;6.77;6.57;;;4.80;99.90;;;;;;5130450;27;20460;-67
2023/04/25 02:26:20;;;;;;;7.77;7.50;;;4.80;99.90;;;;;;5113908;27;20473;-67
2023/04/25 02:28:49;;;;;;;7.10;6.90;;;4.80;99.90;;;;;;5126260;27;20534;-67
2023/04/25 02:31:18;;;;;;;7.73;7.43;;;4.90;99.90;;;;;;5122757;27;21019;-67
2023/04/25 02:33:44;;;;;;;6.77;6.57;;;4.90;99.90;;;;;;5126446;27;20945;-67
2023/04/25 02:36:13;;;;;;;7.07;6.87;;;4.90;99.90;;;;;;5121267;27;20501;-67
2023/04/25 02:38:40;;;;;;;7.20;7.00;;;5.00;99.90;;;;;;5125447;27;20465;-67
2023/04/25 02:41:08;;;;;;;7.20;7.00;;;5.00;99.90;;;;;;5120830;27;20551;-67
2023/04/25 02:43:35;;;;;;;7.70;7.40;;;5.10;99.90;;;;;;5130849;27;20470;-67
2023/04/25 02:46:01;;;;;;;7.03;6.83;;;5.10;99.90;;;;;;5120850;27;20445;-67
2023/04/25 02:48:30;;;;;;;7.10;6.90;;;5.10;99.90;;;;;;5117577;27;20698;-67
2023/04/25 02:50:58;;;;;;;7.50;7.30;;;5.00;99.90;;;;;;5122342;27;20497;-68
2023/04/25 02:53:25;;;;;;;7.07;6.87;;;5.00;99.90;;;;;;5123228;27;20465;-68
2023/04/25 02:55:52;;;;;;;7.00;6.77;;;5.10;99.90;;;;;;5114964;27;20471;-69
2023/04/25 02:58:21;;;;;;;6.93;6.73;;;5.10;99.90;;;;;;5117256;27;20539;-69
2023/04/25 03:00:47;;;;;;;7.20;7.00;;;5.20;99.90;;;;;;5129376;27;20480;-68
2023/04/25 03:03:17;;;;;;;7.70;7.40;;;5.20;99.90;;;;;;5118210;27;20936;-68
2023/04/25 03:05:46;;;;;;;8.03;7.63;;;5.20;99.90;;;;;;5119620;27;20518;-67
2023/04/25 03:08:14;;;;;;;6.70;6.50;;;5.20;99.90;;;;;;5122215;27;20496;-67
2023/04/25 03:10:41;;;;;;;6.73;6.53;;;5.20;99.90;;;;;;5114066;27;20464;-68
2023/04/25 03:13:08;;;;;;;6.90;6.70;;;5.20;99.90;;;;;;5118711;27;20493;-68
2023/04/25 03:15:36;;;;;;;7.20;7.00;;;5.20;99.90;;;;;;5118804;27;20453;-67
2023/04/25 03:18:03;;;;;;;6.50;6.30;;;5.20;99.90;;;;;;5118148;27;20460;-68
2023/04/25 03:20:30;;;;;;;6.83;6.57;;;5.20;99.90;;;;;;5125078;27;20457;-68
2023/04/25 03:22:58;;;;;;;6.20;6.00;;;5.20;99.90;;;;;;5121403;27;21087;-68
2023/04/25 03:25:25;;;;;;;7.40;6.90;;;5.20;99.90;;;;;;5118927;27;20460;-68
2023/04/25 03:27:51;;;;;;;5.80;5.60;;;5.20;99.90;;;;;;5125101;27;20464;-68
2023/04/25 03:30:18;;;;;;;6.30;6.10;;;5.20;99.90;;;;;;5119681;27;20595;-69
2023/04/25 03:32:46;;;;;;;6.13;5.93;;;5.20;99.90;;;;;;5122930;27;20487;-67
2023/04/25 03:35:13;;;;;;;6.97;6.67;;;5.20;99.90;;;;;;5121791;27;20510;-68
2023/04/25 03:37:40;;;;;;;6.30;6.10;;;5.10;99.90;;;;;;5120026;27;20468;-68
2023/04/25 03:40:11;;;;;;;5.90;5.70;;;5.10;99.90;;;;;;5117690;27;20489;-69
2023/04/25 03:42:38;;;;;;;6.40;6.20;;;5.10;99.90;;;;;;5116193;27;20513;-69
2023/04/25 03:45:07;;;;;;;5.47;5.27;;;5.10;99.90;;;;;;5126796;27;20509;-69
2023/04/25 03:47:34;;;;;;;5.80;5.60;;;5.10;99.90;;;;;;5120178;27;20463;-69
2023/04/25 03:50:02;;;;;;;6.70;6.50;;;5.10;99.90;;;;;;5127118;27;20557;-69
2023/04/25 03:52:29;;;;;;;9.10;8.50;;;5.10;99.90;;;;;;5118651;27;20541;-69
2023/04/25 03:54:56;;;;;;;6.37;6.17;;;5.10;99.90;;;;;;5120056;27;21015;-69
2023/04/25 03:57:25;;;;;;;6.73;6.53;;;5.10;99.90;;;;;;5122276;27;20896;-69
2023/04/25 03:59:51;;;;;;;7.10;6.90;;;5.10;99.90;;;;;;5118580;27;20456;-70
2023/04/25 04:02:18;;;;;;;6.57;6.37;;;5.10;99.90;;;;;;5126066;27;20452;-68
2023/04/25 04:04:46;;;;;;;7.20;7.00;;;5.00;99.90;;;;;;5114622;27;20468;-70
2023/04/25 04:07:12;;;;;;;6.97;6.77;;;4.90;99.90;;;;;;5121026;27;20486;-68
2023/04/25 04:09:39;;;;;;;6.50;6.30;;;4.80;99.90;;;;;;5121659;27;20496;-68
2023/04/25 04:12:07;;;;;;;7.07;6.87;;;4.80;99.90;;;;;;5122314;27;20993;-70
2023/04/25 04:14:37;;;;;;;7.10;6.90;;;4.80;99.90;;;;;;5122275;27;20475;-69
2023/04/25 04:17:03;;;;;;;7.87;7.50;;;4.70;99.90;;;;;;5112762;28;20694;-68
2023/04/25 04:19:31;;;;;;;6.97;6.77;;;4.70;99.90;;;;;;5116217;28;20457;-69
2023/04/25 04:22:00;;;;;;;7.10;6.90;;;4.70;99.90;;;;;;5117072;27;21119;-70
2023/04/25 04:24:28;;;;;;;6.47;6.27;;;4.70;99.90;;;;;;5127366;27;20456;-69
2023/04/25 04:26:56;;;;;;;6.40;6.20;;;4.60;99.90;;;;;;5128573;27;20514;-69
2023/04/25 04:29:24;;;;;;;6.63;6.43;;;4.70;99.90;;;;;;5112940;27;21075;-68
2023/04/25 04:31:53;;;;;;;6.70;6.50;;;4.70;99.90;;;;;;5130024;27;20516;-69
2023/04/25 04:34:21;;;;;;;6.67;6.47;;;4.90;99.90;;;;;;5126094;27;20471;-68
2023/04/25 04:36:48;;;;;;;6.40;6.20;;;4.90;99.90;;;;;;5125875;27;20467;-67
2023/04/25 04:39:16;;;;;;;6.90;6.70;;;4.90;99.90;;;;;;5115584;27;20870;-68
2023/04/25 04:41:43;;;;;;;6.57;6.37;;;5.00;99.90;;;;;;5131870;27;21330;-67
2023/04/25 04:44:10;;;;;;;10.33;7.83;;;5.10;99.90;;;;;;5118101;27;20559;-66
2023/04/25 04:46:41;;;;;;;6.13;5.93;;;5.10;99.90;;;;;;5127906;27;21009;-67
2023/04/25 04:49:11;;;;;;;6.07;5.87;;;5.10;99.90;;;;;;5123817;27;20475;-67
2023/04/25 04:51:37;;;;;;;7.27;6.73;;;5.10;99.90;;;;;;5119801;27;20978;-67
2023/04/25 04:54:05;;;;;;;6.87;6.57;;;5.20;99.90;;;;;;5130836;27;20460;-67
2023/04/25 04:56:32;;;;;;;6.50;6.30;;;5.20;99.90;;;;;;5119278;27;20490;-67
2023/04/25 04:59:00;;;;;;;6.73;6.23;;;5.20;99.90;;;;;;5132262;27;20459;-67
2023/04/25 05:01:27;;;;;;;6.30;6.10;;;5.30;99.90;;;;;;5120440;27;20458;-67
2023/04/25 05:03:59;;;;;;;6.33;6.13;;;5.30;99.90;;;;;;5126766;27;20548;-68
2023/04/25 05:06:28;;;;;;;10.10;6.20;;;5.30;99.90;;;;;;5116510;27;20484;-68
2023/04/25 05:08:55;;;;;;;6.00;5.80;;;5.40;99.90;;;;;;5113188;27;20457;-68
2023/04/25 05:11:25;;;;;;;6.20;6.00;;;5.50;99.90;;;;;;5126243;27;20460;-68
2023/04/25 05:13:53;;;;;;;5.67;5.47;;;5.50;99.90;;;;;;5120956;27;20679;-67
2023/04/25 05:16:20;;;;;;;7.33;6.77;;;5.50;99.90;;;;;;5120932;27;20485;-67
2023/04/25 05:18:47;;;;;;;7.00;6.70;;;5.50;99.90;;;;;;5122636;27;20547;-68
2023/04/25 05:21:15;;;;;;;6.70;6.40;;;5.60;99.90;;;;;;5120395;27;20885;-68
2023/04/25 05:23:43;;;;;;;6.40;6.03;;;5.60;99.90;;;;;;5122788;27;20516;-68
2023/04/25 05:26:13;;;;;;;6.10;5.90;;;5.60;99.90;;;;;;5126138;27;20473;-69
2023/04/25 05:28:42;;;;;;;7.83;7.43;;;5.60;99.90;;;;;;5117097;27;20457;-68
2023/04/25 05:31:10;;;;;;;14.73;8.50;;;5.70;99.90;;;;;;5124885;27;20693;-67
2023/04/25 05:33:37;;;;;;;7.97;7.67;;;5.80;99.90;;;;;;5124377;27;20583;-68
2023/04/25 05:36:04;;;;;;;6.27;5.97;;;5.80;99.90;;;;;;5122392;27;20472;-68
2023/04/25 05:38:31;;;;;;;17.40;7.20;;;5.90;99.90;;;;;;5117293;27;20464;-68
2023/04/25 05:41:00;;;;;;;7.43;6.63;;;6.00;99.90;;;;;;5130548;27;20467;-68
2023/04/25 05:43:27;;;;;;;6.63;6.20;;;6.00;99.90;;;;;;5120369;27;21011;-68
2023/04/25 05:45:54;;;;;;;12.03;7.73;;;6.00;99.90;;;;;;5129069;27;20450;-67
2023/04/25 05:48:22;;;;;;;14.03;7.50;;;6.00;99.90;;;;;;5120163;27;20456;-68
2023/04/25 05:50:49;;;;;;;6.03;5.80;;;6.10;99.90;;;;;;5119992;27;20667;-67
2023/04/25 05:53:15;;;;;;;5.87;5.40;;;6.10;99.90;;;;;;5120629;27;20540;-68
2023/04/25 05:55:42;;;;;;;7.73;6.20;;;6.20;99.90;;;;;;5123584;27;20461;-68
2023/04/25 05:58:10;;;;;;;3.90;3.80;;;6.30;99.90;;;;;;5128618;27;20456;-69
2023/04/25 06:00:38;;;;;;;4.93;4.73;;;6.40;99.90;;;;;;5123844;27;20468;-68
2023/04/25 06:03:04;;;;;;;6.47;6.17;;;6.60;99.90;;;;;;5115264;27;20482;-68
2023/04/25 06:05:32;;;;;;;17.20;4.80;;;6.70;99.90;;;;;;5122735;27;20517;-68
2023/04/25 06:07:58;;;;;;;5.70;5.23;;;6.80;99.90;;;;;;5119282;27;20476;-68
2023/04/25 06:10:26;;;;;;;7.70;5.80;;;6.90;99.90;;;;;;5121717;27;20644;-67
2023/04/25 06:12:53;;;;;;;6.70;6.30;;;7.00;99.90;;;;;;5115932;27;20528;-68
2023/04/25 06:15:21;;;;;;;7.50;7.10;;;7.10;99.90;;;;;;5119437;27;20545;-68
2023/04/25 06:17:49;;;;;;;7.00;6.70;;;7.10;99.90;;;;;;5128602;27;20477;-69
2023/04/25 06:20:16;;;;;;;6.10;5.90;;;7.20;99.90;;;;;;5121992;27;20678;-68
2023/04/25 06:22:43;;;;;;;6.90;6.70;;;7.30;99.90;;;;;;5119183;27;20465;-68
2023/04/25 06:25:10;;;;;;;7.17;6.83;;;7.40;99.90;;;;;;5119451;27;20468;-68
2023/04/25 06:27:37;;;;;;;9.00;8.17;;;7.50;99.90;;;;;;5123690;27;20514;-68
2023/04/25 06:30:05;;;;;;;9.87;9.30;;;7.50;99.90;;;;;;5120604;27;20809;-67
2023/04/25 06:32:34;;;;;;;9.90;9.20;;;7.60;99.90;;;;;;5119762;27;20490;-68
2023/04/25 06:35:00;;;;;;;10.43;9.93;;;7.60;99.90;;;;;;5118003;27;20454;-68
2023/04/25 06:37:28;;;;;;;12.90;9.53;;;7.70;99.90;;;;;;5126402;27;20497;-68
2023/04/25 06:39:54;;;;;;;9.93;9.43;;;7.90;99.90;;;;;;5113508;27;20860;-68
2023/04/25 06:42:21;;;;;;;10.70;10.20;;;7.90;99.90;;;;;;5124323;27;20911;-68
2023/04/25 06:44:48;;;;;;;11.50;10.67;;;7.90;99.90;;;;;;5117597;27;20456;-67
2023/04/25 06:47:15;;;;;;;13.40;12.20;;;7.90;99.90;;;;;;5120122;27;20493;-68
2023/04/25 06:49:43;;;;;;;11.17;10.67;;;7.80;99.90;;;;;;5117753;27;20510;-68
2023/04/25 06:52:10;;;;;;;40.67;12.10;;;7.90;99.90;;;;;;5115068;27;20473;-68
2023/04/25 06:54:37;;;;;;;13.30;12.53;;;8.00;99.90;;;;;;5122693;27;20492;-67
2023/04/25 06:57:04;;;;;;;13.10;12.23;;;8.00;99.90;;;;;;5118448;27;20697;-69
2023/04/25 06:59:32;;;;;;;12.57;11.90;;;8.10;99.90;;;;;;5126888;27;20479;-68
2023/04/25 07:02:00;;;;;;;15.30;14.27;;;8.10;99.90;;;;;;5118050;27;20529;-69
2023/04/25 07:04:26;;;;;;;12.40;11.67;;;8.30;99.90;;;;;;5113401;27;20517;-68
2023/04/25 07:06:54;;;;;;;13.80;12.80;;;8.50;99.90;;;;;;5123403;27;20480;-68
2023/04/25 07:09:21;;;;;;;13.93;13.23;;;8.50;99.90;;;;;;5113084;27;21010;-68
2023/04/25 07:11:48;;;;;;;13.27;12.67;;;8.50;99.90;;;;;;5121374;27;20457;-68
2023/04/25 07:14:15;;;;;;;13.27;12.67;;;8.50;99.90;;;;;;5110521;27;20496;-68
2023/04/25 07:16:41;;;;;;;15.77;14.43;;;8.50;99.90;;;;;;5113853;27;20508;-68
2023/04/25 07:19:08;;;;;;;15.30;14.23;;;8.60;99.90;;;;;;5120037;27;20517;-67
2023/04/25 07:21:36;;;;;;;15.50;14.60;;;8.70;99.90;;;;;;5121158;27;20945;-68
2023/04/25 07:24:04;;;;;;;15.53;14.50;;;8.80;99.90;;;;;;5115755;27;20472;-69
2023/04/25 07:26:31;;;;;;;15.00;14.20;;;8.80;99.90;;;;;;5116383;27;20457;-68
2023/04/25 07:28:58;;;;;;;15.90;15.00;;;8.90;99.90;;;;;;5120756;27;21192;-69
2023/04/25 07:31:25;;;;;;;17.40;15.63;;;9.00;99.90;;;;;;5112621;27;20456;-68
2023/04/25 07:33:52;;;;;;;15.37;14.57;;;9.10;99.90;;;;;;5114944;27;21251;-69
2023/04/25 07:36:22;;;;;;;14.97;14.20;;;9.10;99.90;;;;;;5112388;27;20517;-69
2023/04/25 07:38:49;;;;;;;16.00;15.20;;;9.10;99.90;;;;;;5116501;27;20536;-68
2023/04/25 07:41:17;;;;;;;14.90;14.20;;;9.20;99.90;;;;;;5113873;27;20966;-69
2023/04/25 07:43:44;;;;;;;16.63;15.10;;;9.30;99.90;;;;;;5114761;27;20453;-68
2023/04/25 07:46:11;;;;;;;15.70;14.90;;;9.60;99.90;;;;;;5117452;27;20456;-68
2023/04/25 07:48:38;;;;;;;16.97;16.07;;;9.60;99.90;;;;;;5116981;27;20550;-68
2023/04/25 07:51:05;;;;;;;16.87;15.97;;;9.70;99.90;;;;;;5114764;27;20977;-68
2023/04/25 07:53:34;;;;;;;17.00;16.10;;;9.50;99.90;;;;;;5115614;27;20469;-69
2023/04/25 07:56:01;;;;;;;17.20;16.00;;;9.40;99.90;;;;;;5121031;27;20456;-68
2023/04/25 07:58:30;;;;;;;17.53;16.33;;;9.50;99.90;;;;;;5123591;27;20452;-68
2023/04/25 08:00:57;;;;;;;18.57;17.10;;;9.70;99.90;;;;;;5110462;27;20901;-68
2023/04/25 08:03:24;;;;;;;19.97;17.70;;;9.80;99.90;;;;;;5116400;27;20538;-68
2023/04/25 08:05:51;;;;;;;16.40;15.60;;;10.00;99.90;;;;;;5115014;27;20459;-68
2023/04/25 08:08:18;;;;;;;17.07;16.20;;;10.20;99.90;;;;;;5114819;27;20483;-68
2023/04/25 08:10:47;;;;;;;18.63;17.63;;;10.20;99.90;;;;;;5110907;27;20457;-68
2023/04/25 08:13:14;;;;;;;23.83;17.70;;;10.00;99.90;;;;;;5118126;27;20854;-69
2023/04/25 08:15:43;;;;;;;17.93;16.90;;;10.00;99.90;;;;;;5116318;27;21192;-69
2023/04/25 08:18:13;;;;;;;24.83;17.40;;;9.90;99.90;;;;;;5115455;27;20486;-69
2023/04/25 08:20:42;;;;;;;16.50;15.70;;;9.80;99.90;;;;;;5117980;27;20464;-69
2023/04/25 08:23:10;;;;;;;17.00;16.00;;;10.10;99.90;;;;;;5116246;27;20452;-69
2023/04/25 08:25:37;;;;;;;17.77;16.67;;;10.40;99.90;;;;;;5123111;27;20560;-68
2023/04/25 08:28:04;;;;;;;16.80;16.00;;;10.60;99.90;;;;;;5118487;27;21457;-69
2023/04/25 08:30:31;;;;;;;17.53;16.53;;;10.70;99.90;;;;;;5113925;27;20454;-69
2023/04/25 08:32:59;;;;;;;17.50;16.50;;;10.70;99.90;;;;;;5122495;27;20451;-69
2023/04/25 08:35:26;;;;;;;17.07;16.20;;;10.40;99.90;;;;;;5121124;27;21030;-69
2023/04/25 08:37:53;;;;;;;18.50;16.90;;;10.50;99.90;;;;;;5117056;27;21476;-68
2023/04/25 08:40:25;;;;;;;16.77;15.87;;;10.50;99.90;;;;;;5122772;27;21098;-68
2023/04/25 08:42:54;;;;;;;18.80;17.43;;;10.50;99.90;;;;;;5115149;27;20452;-69
2023/04/25 08:45:21;;;;;;;19.53;17.60;;;10.80;99.90;;;;;;5118513;27;20979;-69
2023/04/25 08:47:50;;;;;;;18.70;17.50;;;11.10;99.90;;;;;;5117710;27;20460;-69
2023/04/25 08:50:21;;;;;;;18.50;17.40;;;11.20;99.90;;;;;;5120120;27;20453;-69
2023/04/25 08:52:49;;;;;;;17.87;16.97;;;11.30;99.90;;;;;;5116705;27;20556;-69
2023/04/25 08:55:17;;;;;;;17.43;16.53;;;11.40;99.90;;;;;;5113469;27;20477;-69
2023/04/25 08:57:45;;;;;;;19.03;17.77;;;11.30;99.90;;;;;;5113809;27;20860;-70
2023/04/25 09:00:14;;;;;;;18.10;17.20;;;11.20;99.90;;;;;;5119658;27;20865;-71
2023/04/25 09:02:42;;;;;;;18.47;17.47;;;11.40;99.90;;;;;;5113132;27;20947;-70
2023/04/25 09:05:10;;;;;;;18.63;17.73;;;11.30;99.90;;;;;;5114226;27;20453;-70
2023/04/25 09:07:39;;;;;;;18.63;17.23;;;11.30;99.90;;;;;;5116176;27;21055;-71
2023/04/25 09:10:06;;;;;;;17.60;16.80;;;11.20;99.90;;;;;;5116936;27;20876;-70
2023/04/25 09:12:33;;;;;;;17.67;16.77;;;10.80;99.90;;;;;;5115452;27;20544;-70
2023/04/25 09:15:07;;;;;;;17.03;16.23;;;10.70;99.90;;;;;;5118415;27;20494;-68
2023/04/25 09:17:34;;;;;;;17.20;16.33;;;10.60;99.90;;;;;;5121121;27;20481;-68
2023/04/25 09:20:09;;;;;;;17.37;16.33;;;10.50;99.90;;;;;;5121696;27;20456;-68
2023/04/25 09:22:36;;;;;;;18.63;17.23;;;10.50;99.90;;;;;;5126310;27;20918;-69
2023/04/25 09:25:09;;;;;;;19.10;17.60;;;10.50;99.90;;;;;;5113650;27;20553;-69
2023/04/25 09:27:36;;;;;;;17.43;16.50;;;10.60;99.90;;;;;;5117317;27;20913;-69
2023/04/25 09:30:03;;;;;;;18.37;17.07;;;10.60;99.90;;;;;;5123611;27;20474;-69
2023/04/25 09:32:30;;;;;;;18.87;17.87;;;10.50;99.90;;;;;;5116489;27;20482;-68
2023/04/25 09:34:58;;;;;;;20.43;17.13;;;10.30;99.90;;;;;;5121700;27;20484;-68
2023/04/25 09:37:25;;;;;;;18.10;17.23;;;10.10;99.90;;;;;;5125154;27;20467;-69
2023/04/25 09:39:54;;;;;;;17.03;16.23;;;10.30;99.90;;;;;;5117965;27;20510;-69
2023/04/25 09:42:25;;;;;;;19.50;18.17;;;11.20;99.90;;;;;;5116640;27;20519;-69
2023/04/25 09:44:53;;;;;;;18.27;17.37;;;12.50;99.90;;;;;;5123072;27;20449;-69
2023/04/25 09:47:21;;;;;;;17.50;16.40;;;12.90;99.90;;;;;;5122866;27;20461;-70
2023/04/25 09:49:50;;;;;;;18.60;17.60;;;13.30;99.90;;;;;;5127499;27;20460;-69
2023/04/25 09:52:18;;;;;;;18.10;17.20;;;13.40;99.90;;;;;;5120792;27;20474;-70
2023/04/25 09:54:46;;;;;;;18.30;16.97;;;12.80;99.90;;;;;;5117014;27;21006;-70
2023/04/25 09:57:15;;;;;;;19.37;17.93;;;12.30;99.90;;;;;;5122456;27;20525;-69
2023/04/25 09:59:46;;;;;;;18.80;17.60;;;12.00;99.90;;;;;;5116602;27;20465;-69
2023/04/25 10:02:16;;;;;;;17.70;16.83;;;11.50;99.90;;;;;;5123756;27;20444;-68
2023/04/25 10:04:48;;;;;;;17.37;16.57;;;11.10;99.90;;;;;;5122508;27;20459;-69
2023/04/25 10:07:16;;;;;;;18.00;17.10;;;10.70;99.90;;;;;;5117487;27;20616;-69
2023/04/25 10:09:46;;;;;;;18.87;17.87;;;10.50;99.90;;;;;;5121631;27;20440;-70
2023/04/25 10:12:14;;;;;;;19.27;18.17;;;10.40;99.90;;;;;;5122181;27;20456;-70
2023/04/25 10:14:42;;;;;;;19.53;18.50;;;10.30;99.90;;;;;;5116177;27;20574;-69
2023/04/25 10:17:12;;;;;;;18.23;17.23;;;10.30;99.90;;;;;;5117488;27;20490;-70
2023/04/25 10:19:40;;;;;;;17.87;16.97;;;10.50;99.90;;;;;;5118745;27;21195;-70
2023/04/25 10:22:09;;;;;;;20.43;18.60;;;10.60;99.90;;;;;;5111891;27;20969;-70
2023/04/25 10:24:37;;;;;;;17.50;16.70;;;10.70;99.90;;;;;;5114385;27;20448;-69
2023/04/25 10:27:05;;;;;;;17.60;16.80;;;10.80;99.90;;;;;;5120108;27;20459;-71
2023/04/25 10:29:32;;;;;;;18.63;17.33;;;11.00;99.90;;;;;;5117154;27;20460;-70
2023/04/25 10:32:00;;;;;;;17.93;17.10;;;11.50;99.90;;;;;;5122701;27;20884;-70
2023/04/25 10:34:39;;;;;;;18.90;17.60;;;11.80;99.90;;;;;;5126982;27;20495;-71
2023/04/25 10:37:09;;;;;;;17.57;16.67;;;11.90;99.90;;;;;;5119568;27;20832;-69
2023/04/25 10:39:36;;;;;;;17.40;16.60;;;11.40;99.90;;;;;;5124274;27;20491;-69
2023/04/25 10:42:03;;;;;;;17.47;16.57;;;10.90;99.90;;;;;;5118381;27;20460;-70
2023/04/25 10:44:32;;;;;;;18.77;17.77;;;10.50;99.90;;;;;;5120441;27;20680;-70
2023/04/25 10:47:00;;;;;;;19.13;18.10;;;10.30;99.90;;;;;;5118229;27;20786;-70
2023/04/25 10:49:33;;;;;;;17.20;16.40;;;10.30;99.90;;;;;;5119703;27;20460;-68
2023/04/25 10:52:15;;;;;;;17.60;16.70;;;10.50;99.90;;;;;;5120033;27;20453;-68
2023/04/25 10:54:43;;;;;;;17.40;16.57;;;10.50;99.90;;;;;;5118469;27;20960;-69
2023/04/25 10:57:29;;;;;;;17.50;16.20;;;10.70;99.90;;;;;;5121672;27;20587;-69
2023/04/25 11:00:00;;;;;;;17.33;16.43;;;11.10;99.90;;;;;;5120900;27;20453;-69
2023/04/25 11:02:28;;;;;;;17.70;16.80;;;12.00;99.90;;;;;;5116899;27;20453;-69
2023/04/25 11:04:56;;;;;;;18.70;17.70;;;13.10;99.90;;;;;;5114145;27;20461;-69
2023/04/25 11:07:32;;;;;;;17.57;16.67;;;13.60;99.90;;;;;;5120684;27;20472;-69
2023/04/25 11:10:04;;;;;;;16.93;16.13;;;14.20;99.90;;;;;;5121572;27;20828;-71
2023/04/25 11:12:32;;;;;;;17.40;16.60;;;15.30;99.90;;;;;;5123611;27;20456;-68
2023/04/25 11:15:04;;;;;;;18.20;17.30;;;15.80;99.90;;;;;;5118064;27;20591;-69
2023/04/25 11:17:31;;;;;;;18.53;17.63;;;15.70;99.90;;;;;;5118381;27;21002;-69
2023/04/25 11:19:58;;;;;;;19.00;17.90;;;15.90;95.50;;;;;;5118195;27;20845;-68
2023/04/25 11:22:28;;;;;;;18.33;17.43;;;16.10;96.20;;;;;;5118644;27;20467;-70
2023/04/25 11:24:55;;;;;;;17.83;17.03;;;15.70;95.40;;;;;;5113303;27;20456;-68
2023/04/25 11:27:24;;;;;;;18.13;17.33;;;16.50;97.40;;;;;;5116931;27;20464;-69
2023/04/25 11:29:51;;;;;;;18.13;17.33;;;16.50;93.90;;;;;;5124682;27;20819;-69
2023/04/25 11:32:19;;;;;;;19.33;17.70;;;16.80;94.60;;;;;;5122010;27;20513;-69
2023/04/25 11:34:47;;;;;;;19.47;18.47;;;16.20;94.10;;;;;;5120115;27;20481;-69
2023/04/25 11:37:14;;;;;;;18.93;18.03;;;14.70;93.00;;;;;;5123138;27;20476;-69
2023/04/25 11:39:46;;;;;;;19.70;18.50;;;13.50;94.40;;;;;;5112649;27;21008;-69
2023/04/25 11:42:14;;;;;;;18.80;17.90;;;13.00;94.80;;;;;;5119360;27;20802;-70
2023/04/25 11:44:41;;;;;;;18.07;17.27;;;12.40;94.20;;;;;;5115258;27;20474;-68
2023/04/25 11:47:08;;;;;;;18.83;17.83;;;12.20;96.50;;;;;;5116493;27;20449;-69
2023/04/25 11:49:35;;;;;;;18.60;17.60;;;12.00;97.40;;;;;;5115454;27;20808;-70
2023/04/25 11:52:02;;;;;;;17.77;16.97;;;11.60;96.10;;;;;;5112691;27;20460;-69
2023/04/25 11:54:29;;;;;;;18.37;17.17;;;11.30;99.70;;;;;;5122093;27;20521;-68
2023/04/25 11:56:58;;;;;;;17.97;16.90;;;10.80;99.90;;;;;;5115192;27;20492;-70
2023/04/25 11:59:28;;;;;;;17.73;16.60;;;10.30;99.90;;;;;;5120886;27;20973;-70
2023/04/25 12:01:55;;;;;;;17.73;16.83;;;10.00;99.90;;;;;;5125236;27;20456;-69
2023/04/25 12:04:23;;;;;;;17.80;16.90;;;9.80;99.90;;;;;;5111130;27;20580;-69
2023/04/25 12:06:51;;;;;;;17.50;16.50;;;9.70;99.90;;;;;;5120292;27;20483;-68
2023/04/25 12:09:19;;;;;;;17.67;16.67;;;9.80;99.90;;;;;;5116340;27;20490;-68
2023/04/25 12:11:47;;;;;;;17.37;16.47;;;10.00;99.90;;;;;;5123851;27;20497;-68
2023/04/25 12:14:23;;;;;;;17.27;16.47;;;10.00;99.90;;;;;;5120305;27;20813;-70
2023/04/25 12:16:52;;;;;;;17.43;16.53;;;10.10;99.90;;;;;;5118293;27;20928;-69
2023/04/25 12:19:20;;;;;;;17.73;16.93;;;10.30;99.90;;;;;;5118120;27;20567;-70
2023/04/25 12:21:49;;;;;;;16.80;16.00;;;10.30;99.90;;;;;;5119158;27;20549;-69
2023/04/25 12:24:18;;;;;;;17.80;16.97;;;10.70;99.90;;;;;;5116581;27;20960;-69
2023/04/25 12:26:52;;;;;;;16.43;15.73;;;12.00;99.90;;;;;;5122491;27;20550;-69
2023/04/25 12:29:22;;;;;;;17.20;16.30;;;13.30;99.90;;;;;;5112767;27;20940;-70
2023/04/25 12:31:51;;;;;;;18.43;17.37;;;14.00;97.80;;;;;;5116944;27;20448;-69
2023/04/25 12:34:18;;;;;;;18.13;16.87;;;14.80;97.20;;;;;;5119888;27;20463;-69
2023/04/25 12:36:45;;;;;;;18.50;17.70;;;15.70;94.30;;;;;;5113085;27;20505;-68
2023/04/25 12:39:16;;;;;;;17.13;16.37;;;16.40;90.10;;;;;;5118806;27;21011;-69
2023/04/25 12:41:43;;;;;;;18.07;16.90;;;16.40;90.70;;;;;;5115435;27;20553;-69
2023/04/25 12:44:10;;;;;;;16.87;16.17;;;16.40;90.20;;;;;;5123808;27;20456;-69
2023/04/25 12:46:39;;;;;;;18.00;17.17;;;15.80;81.50;;;;;;5122759;27;20558;-69